createdAt,value
2023-04-09T00:00:43.633Z,100846.72
2023-04-09T00:03:10.885Z,100851.88
2023-04-09T00:05:41.133Z,100843.34
2023-04-09T00:08:08.102Z,100850.38
2023-04-09T00:10:35.392Z,100844.44
2023-04-09T00:13:02.282Z,100852.81
2023-04-09T00:15:31.561Z,100855.81
2023-04-09T00:17:59.672Z,100851.97
2023-04-09T00:20:26.754Z,100850.22
2023-04-09T00:22:54.234Z,100854.50
2023-04-09T00:25:21.143Z,100854.56
2023-04-09T00:27:48.025Z,100856.88
2023-04-09T00:30:15.087Z,100856.88
2023-04-09T00:32:42.242Z,100850.78
2023-04-09T00:35:09.534Z,100857.78
2023-04-09T00:37:36.474Z,100857.03
2023-04-09T00:40:03.947Z,100852.78
2023-04-09T00:42:34.843Z,100855.34
2023-04-09T00:45:02.140Z,100851.97
2023-04-09T00:47:31.039Z,100856.72
2023-04-09T00:49:58.129Z,100853.41
2023-04-09T00:52:25.384Z,100851.13
2023-04-09T00:54:52.571Z,100854.03
2023-04-09T00:57:19.792Z,100860.72
2023-04-09T00:59:46.784Z,100853.84
2023-04-09T01:02:13.931Z,100860.63
2023-04-09T01:04:41.776Z,100858.69
2023-04-09T01:07:23.779Z,100858.94
2023-04-09T01:10:06.079Z,100858.38
2023-04-09T01:12:56.561Z,100859.34
2023-04-09T01:15:26.978Z,100865.19
2023-04-09T01:18:02.104Z,100865.28
2023-04-09T01:20:57.548Z,100862.78
2023-04-09T01:23:58.231Z,100867.84
2023-04-09T01:27:04.189Z,100864.88
2023-04-09T01:29:51.966Z,100866.25
2023-04-09T01:32:19.076Z,100869.06
2023-04-09T01:34:46.551Z,100860.94
2023-04-09T01:37:13.468Z,100858.69
2023-04-09T01:39:40.613Z,100863.00
2023-04-09T01:42:11.233Z,100862.72
2023-04-09T01:44:41.603Z,100869.97
2023-04-09T01:47:08.962Z,100872.25
2023-04-09T01:49:36.155Z,100873.91
2023-04-09T01:52:03.206Z,100873.09
2023-04-09T01:54:30.322Z,100869.16
2023-04-09T01:56:57.781Z,100869.66
2023-04-09T01:59:24.838Z,100866.25
2023-04-09T02:02:03.052Z,100860.22
2023-04-09T02:04:39.349Z,100864.63
2023-04-09T02:07:30.983Z,100865.78
2023-04-09T02:09:58.497Z,100864.41
2023-04-09T02:12:25.445Z,100863.31
2023-04-09T02:14:52.595Z,100864.34
2023-04-09T02:17:19.621Z,100867.09
2023-04-09T02:19:47.356Z,100862.56
2023-04-09T02:22:15.175Z,100869.41
2023-04-09T02:24:42.219Z,100867.25
2023-04-09T02:27:09.249Z,100872.38
2023-04-09T02:29:38.350Z,100862.69
2023-04-09T02:32:05.475Z,100862.25
2023-04-09T02:34:32.501Z,100868.75
2023-04-09T02:36:59.647Z,100865.16
2023-04-09T02:39:27.417Z,100866.03
2023-04-09T02:41:54.370Z,100862.53
2023-04-09T02:44:21.300Z,100865.81
2023-04-09T02:46:49.528Z,100863.81
2023-04-09T02:49:16.812Z,100861.09
2023-04-09T02:51:43.771Z,100866.00
2023-04-09T02:54:10.856Z,100867.03
2023-04-09T02:56:37.862Z,100867.03
2023-04-09T02:59:04.874Z,100871.28
2023-04-09T03:01:31.981Z,100872.13
2023-04-09T03:04:00.152Z,100864.56
2023-04-09T03:06:27.180Z,100872.22
2023-04-09T03:08:54.134Z,100872.94
2023-04-09T03:11:21.132Z,100878.94
2023-04-09T03:13:48.149Z,100873.19
2023-04-09T03:16:15.123Z,100878.78
2023-04-09T03:18:42.165Z,100867.94
2023-04-09T03:21:09.340Z,100869.06
2023-04-09T03:23:39.554Z,100871.75
2023-04-09T03:26:07.846Z,100879.66
2023-04-09T03:28:42.575Z,100881.66
2023-04-09T03:31:09.703Z,100877.63
2023-04-09T03:33:38.957Z,100881.97
2023-04-09T03:36:06.638Z,100878.09
2023-04-09T03:38:54.605Z,100878.38
2023-04-09T03:41:43.648Z,100882.75
2023-04-09T03:44:14.419Z,100881.91
2023-04-09T03:47:13.662Z,100875.31
2023-04-09T03:49:40.781Z,100881.84
2023-04-09T03:52:16.619Z,100889.22
2023-04-09T03:54:46.846Z,100869.00
2023-04-09T03:57:18.726Z,100879.59
2023-04-09T03:59:48.954Z,100876.22
2023-04-09T04:02:19.318Z,100874.09
2023-04-09T04:04:54.591Z,100875.41
2023-04-09T04:07:23.404Z,100872.50
2023-04-09T04:09:58.068Z,100882.38
2023-04-09T04:12:25.086Z,100877.66
2023-04-09T04:15:03.142Z,100875.69
2023-04-09T04:17:38.242Z,100879.69
2023-04-09T04:20:12.777Z,100877.44
2023-04-09T04:22:52.400Z,100884.59
2023-04-09T04:25:20.674Z,100883.31
2023-04-09T04:27:48.148Z,100874.63
2023-04-09T04:30:17.662Z,100881.19
2023-04-09T04:32:56.117Z,100878.25
2023-04-09T04:35:23.530Z,100874.31
2023-04-09T04:37:54.175Z,100873.03
2023-04-09T04:40:22.093Z,100873.53
2023-04-09T04:42:55.770Z,100874.91
2023-04-09T04:45:22.772Z,100873.81
2023-04-09T04:47:57.709Z,100868.47
2023-04-09T04:50:24.741Z,100870.22
2023-04-09T04:52:57.348Z,100877.94
2023-04-09T04:55:28.202Z,100866.63
2023-04-09T04:57:55.865Z,100876.63
2023-04-09T05:00:26.139Z,100877.84
2023-04-09T05:02:53.569Z,100876.44
2023-04-09T05:05:41.217Z,100876.22
2023-04-09T05:08:08.830Z,100876.81
2023-04-09T05:10:35.981Z,100869.66
2023-04-09T05:13:03.063Z,100880.59
2023-04-09T05:15:40.871Z,100882.03
2023-04-09T05:18:08.925Z,100879.81
2023-04-09T05:20:36.647Z,100881.09
2023-04-09T05:23:10.281Z,100877.19
2023-04-09T05:25:41.595Z,100874.88
2023-04-09T05:28:16.813Z,100879.59
2023-04-09T05:30:48.061Z,100885.22
2023-04-09T05:33:16.436Z,100879.50
2023-04-09T05:35:43.721Z,100882.44
2023-04-09T05:38:11.174Z,100883.56
2023-04-09T05:40:38.710Z,100882.97
2023-04-09T05:43:11.329Z,100885.69
2023-04-09T05:45:41.395Z,100877.16
2023-04-09T05:48:08.694Z,100881.72
2023-04-09T05:50:47.168Z,100881.25
2023-04-09T05:53:21.749Z,100885.09
2023-04-09T05:55:51.485Z,100882.81
2023-04-09T05:58:22.168Z,100884.75
2023-04-09T06:00:51.675Z,100882.47
2023-04-09T06:03:19.824Z,100880.13
2023-04-09T06:05:48.346Z,100889.00
2023-04-09T06:08:15.424Z,100892.66
2023-04-09T06:10:42.316Z,100890.44
2023-04-09T06:13:10.243Z,100879.50
2023-04-09T06:15:38.885Z,100887.31
2023-04-09T06:18:05.959Z,100891.00
2023-04-09T06:20:33.032Z,100886.88
2023-04-09T06:22:59.969Z,100886.16
2023-04-09T06:25:27.050Z,100888.09
2023-04-09T06:27:53.961Z,100884.69
2023-04-09T06:30:20.934Z,100890.06
2023-04-09T06:32:54.653Z,100887.59
2023-04-09T06:35:22.174Z,100894.78
2023-04-09T06:37:49.153Z,100896.50
2023-04-09T06:40:16.245Z,100889.69
2023-04-09T06:42:43.165Z,100895.84
2023-04-09T06:45:17.885Z,100894.31
2023-04-09T06:47:44.934Z,100897.88
2023-04-09T06:50:11.844Z,100908.38
2023-04-09T06:52:38.830Z,100902.28
2023-04-09T06:55:06.339Z,100904.03
2023-04-09T06:57:33.348Z,100906.78
2023-04-09T07:00:00.344Z,100907.81
2023-04-09T07:02:28.047Z,100904.41
2023-04-09T07:04:55.247Z,100913.19
2023-04-09T07:07:24.299Z,100908.94
2023-04-09T07:09:53.080Z,100907.28
2023-04-09T07:12:32.702Z,100908.19
2023-04-09T07:15:03.649Z,100913.41
2023-04-09T07:17:31.368Z,100909.97
2023-04-09T07:19:58.339Z,100908.28
2023-04-09T07:22:26.802Z,100910.13
2023-04-09T07:24:54.974Z,100905.78
2023-04-09T07:27:26.012Z,100906.59
2023-04-09T07:29:57.860Z,100903.97
2023-04-09T07:32:25.569Z,100911.84
2023-04-09T07:34:53.044Z,100914.47
2023-04-09T07:37:20.819Z,100917.09
2023-04-09T07:39:48.297Z,100904.97
2023-04-09T07:42:15.450Z,100904.16
2023-04-09T07:44:42.461Z,100898.97
2023-04-09T07:47:09.512Z,100912.88
2023-04-09T07:49:37.494Z,100905.03
2023-04-09T07:52:04.832Z,100905.06
2023-04-09T07:54:31.931Z,100899.78
2023-04-09T07:56:59.434Z,100906.81
2023-04-09T07:59:27.643Z,100904.25
2023-04-09T08:01:54.684Z,100906.91
2023-04-09T08:04:22.171Z,100906.09
2023-04-09T08:06:51.515Z,100906.09
2023-04-09T08:09:18.626Z,100906.97
2023-04-09T08:11:46.227Z,100905.22
2023-04-09T08:14:13.938Z,100904.38
2023-04-09T08:16:42.350Z,100901.75
2023-04-09T08:19:09.677Z,100898.31
2023-04-09T08:21:43.060Z,100905.31
2023-04-09T08:24:13.203Z,100895.75
2023-04-09T08:26:40.629Z,100901.00
2023-04-09T08:29:08.209Z,100895.78
2023-04-09T08:31:36.651Z,100899.31
2023-04-09T08:34:03.933Z,100901.06
2023-04-09T08:36:31.837Z,100897.56
2023-04-09T08:39:00.693Z,100897.63
2023-04-09T08:41:30.921Z,100895.88
2023-04-09T08:43:59.260Z,100900.19
2023-04-09T08:46:27.319Z,100906.28
2023-04-09T08:48:54.761Z,100899.34
2023-04-09T08:51:23.079Z,100901.09
2023-04-09T08:54:03.254Z,100900.19
2023-04-09T08:56:31.133Z,100898.47
2023-04-09T08:58:58.830Z,100896.72
2023-04-09T09:01:27.480Z,100894.13
2023-04-09T09:04:03.909Z,100897.63
2023-04-09T09:06:41.185Z,100891.53
2023-04-09T09:09:09.470Z,100886.34
2023-04-09T09:11:37.769Z,100879.34
2023-04-09T09:14:06.295Z,100885.47
2023-04-09T09:16:34.997Z,100875.00
2023-04-09T09:19:02.770Z,100875.84
2023-04-09T09:21:30.260Z,100870.63
2023-04-09T09:23:57.446Z,100872.34
2023-04-09T09:26:25.955Z,100880.13
2023-04-09T09:28:53.074Z,100865.34
2023-04-09T09:31:21.230Z,100866.22
2023-04-09T09:33:48.460Z,100863.63
2023-04-09T09:36:34.642Z,100866.22
2023-04-09T09:39:04.161Z,100867.97
2023-04-09T09:41:31.352Z,100867.97
2023-04-09T09:43:58.436Z,100861.00
2023-04-09T09:46:26.480Z,100863.66
2023-04-09T09:48:53.804Z,100865.41
2023-04-09T09:51:22.810Z,100859.34
2023-04-09T09:53:49.997Z,100854.16
2023-04-09T09:56:27.119Z,100855.88
2023-04-09T09:59:24.776Z,100856.72
2023-04-09T10:02:01.419Z,100850.66
2023-04-09T10:04:29.520Z,100854.13
2023-04-09T10:06:56.813Z,100855.84
2023-04-09T10:09:24.220Z,100855.78
2023-04-09T10:11:51.303Z,100851.44
2023-04-09T10:14:18.282Z,100847.91
2023-04-09T10:16:45.531Z,100853.13
2023-04-09T10:19:15.689Z,100841.81
2023-04-09T10:21:53.497Z,100843.53
2023-04-09T10:24:20.758Z,100846.13
2023-04-09T10:26:47.777Z,100846.03
2023-04-09T10:29:15.997Z,100850.38
2023-04-09T10:32:03.542Z,100842.50
2023-04-09T10:34:30.588Z,100840.69
2023-04-09T10:36:58.076Z,100842.41
2023-04-09T10:39:29.900Z,100838.09
2023-04-09T10:41:59.609Z,100831.16
2023-04-09T10:44:27.641Z,100842.47
2023-04-09T10:46:55.188Z,100838.16
2023-04-09T10:49:23.586Z,100830.31
2023-04-09T10:52:12.635Z,100830.34
2023-04-09T10:54:43.771Z,100835.56
2023-04-09T10:57:11.476Z,100835.56
2023-04-09T10:59:42.621Z,100833.81
2023-04-09T11:02:13.807Z,100826.81
2023-04-09T11:04:52.595Z,100832.91
2023-04-09T11:07:19.520Z,100831.06
2023-04-09T11:09:47.801Z,100833.66
2023-04-09T11:12:14.726Z,100822.28
2023-04-09T11:14:41.592Z,100825.72
2023-04-09T11:17:08.579Z,100823.97
2023-04-09T11:19:35.738Z,100821.50
2023-04-09T11:22:06.988Z,100822.41
2023-04-09T11:24:41.601Z,100825.00
2023-04-09T11:27:08.910Z,100822.47
2023-04-09T11:29:36.252Z,100818.94
2023-04-09T11:32:05.324Z,100819.81
2023-04-09T11:34:32.524Z,100807.66
2023-04-09T11:36:59.941Z,100818.09
2023-04-09T11:39:26.914Z,100816.38
2023-04-09T11:41:53.871Z,100811.13
2023-04-09T11:44:21.788Z,100804.19
2023-04-09T11:46:49.244Z,100801.59
2023-04-09T11:49:16.642Z,100802.44
2023-04-09T11:51:43.740Z,100807.69
2023-04-09T11:54:11.220Z,100803.34
2023-04-09T11:56:38.212Z,100799.09
2023-04-09T11:59:05.175Z,100793.94
2023-04-09T12:01:33.081Z,100788.72
2023-04-09T12:04:00.720Z,100802.66
2023-04-09T12:06:28.658Z,100792.19
2023-04-09T12:08:59.068Z,100796.50
2023-04-09T12:11:30.024Z,100792.97
2023-04-09T12:14:03.652Z,100791.19
2023-04-09T12:16:34.614Z,100786.00
2023-04-09T12:19:11.727Z,100787.78
2023-04-09T12:21:58.627Z,100779.06
2023-04-09T12:24:26.070Z,100781.63
2023-04-09T12:26:53.138Z,100787.66
2023-04-09T12:29:20.684Z,100785.88
2023-04-09T12:31:47.795Z,100780.59
2023-04-09T12:34:14.754Z,100782.38
2023-04-09T12:36:41.792Z,100781.56
2023-04-09T12:39:11.694Z,100785.06
2023-04-09T12:41:38.632Z,100779.91
2023-04-09T12:44:07.392Z,100781.69
2023-04-09T12:46:34.326Z,100781.72
2023-04-09T12:49:01.297Z,100785.25
2023-04-09T12:51:28.671Z,100782.72
2023-04-09T12:53:55.782Z,100775.78
2023-04-09T12:56:22.915Z,100779.25
2023-04-09T12:58:49.756Z,100774.06
2023-04-09T13:01:17.138Z,100774.97
2023-04-09T13:03:44.498Z,100770.63
2023-04-09T13:06:11.692Z,100774.97
2023-04-09T13:08:38.611Z,100774.09
2023-04-09T13:11:06.027Z,100770.59
2023-04-09T13:13:33.588Z,100766.28
2023-04-09T13:16:00.579Z,100762.81
2023-04-09T13:18:27.618Z,100772.38
2023-04-09T13:20:54.553Z,100766.28
2023-04-09T13:23:21.480Z,100760.19
2023-04-09T13:25:48.378Z,100759.34
2023-04-09T13:28:15.337Z,100766.28
2023-04-09T13:30:42.268Z,100766.28
2023-04-09T13:33:09.389Z,100761.94
2023-04-09T13:35:36.493Z,100756.72
2023-04-09T13:38:03.527Z,100757.59
2023-04-09T13:40:30.545Z,100755.00
2023-04-09T13:42:57.771Z,100748.88
2023-04-09T13:45:24.690Z,100750.63
2023-04-09T13:47:51.694Z,100747.16
2023-04-09T13:50:18.817Z,100745.41
2023-04-09T13:52:45.706Z,100740.19
2023-04-09T13:55:12.647Z,100741.91
2023-04-09T13:57:40.051Z,100737.53
2023-04-09T14:00:08.285Z,100737.56
2023-04-09T14:02:35.420Z,100732.31
2023-04-09T14:05:04.099Z,100736.59
2023-04-09T14:07:31.096Z,100733.06
2023-04-09T14:09:58.228Z,100726.97
2023-04-09T14:12:25.339Z,100725.19
2023-04-09T14:14:52.397Z,100722.56
2023-04-09T14:17:19.341Z,100733.88
2023-04-09T14:19:46.362Z,100728.63
2023-04-09T14:22:13.508Z,100722.56
2023-04-09T14:24:40.514Z,100726.84
2023-04-09T14:27:08.252Z,100724.22
2023-04-09T14:29:35.377Z,100716.38
2023-04-09T14:32:02.414Z,100712.84
2023-04-09T14:34:30.286Z,100719.75
2023-04-09T14:36:57.263Z,100713.66
2023-04-09T14:39:24.283Z,100716.22
2023-04-09T14:41:51.334Z,100718.75
2023-04-09T14:44:18.247Z,100717.81
2023-04-09T14:46:45.438Z,100712.56
2023-04-09T14:49:12.554Z,100720.31
2023-04-09T14:51:39.501Z,100715.06
2023-04-09T14:54:06.803Z,100714.13
2023-04-09T14:56:33.767Z,100721.81
2023-04-09T14:59:00.762Z,100714.84
2023-04-09T15:01:28.255Z,100716.56
2023-04-09T15:03:55.722Z,100719.09
2023-04-09T15:06:23.070Z,100713.88
2023-04-09T15:08:50.014Z,100716.44
2023-04-09T15:11:17.508Z,100712.09
2023-04-09T15:13:44.628Z,100704.16
2023-04-09T15:16:11.971Z,100706.69
2023-04-09T15:18:38.951Z,100707.47
2023-04-09T15:21:06.070Z,100707.38
2023-04-09T15:23:35.612Z,100709.06
2023-04-09T15:26:02.546Z,100710.69
2023-04-09T15:28:29.493Z,100708.91
2023-04-09T15:30:56.445Z,100714.03
2023-04-09T15:33:23.509Z,100715.69
2023-04-09T15:35:50.879Z,100715.69
2023-04-09T15:38:17.918Z,100714.72
2023-04-09T15:40:44.846Z,100710.34
2023-04-09T15:43:11.759Z,100717.19
2023-04-09T15:45:38.722Z,100712.72
2023-04-09T15:48:06.132Z,100709.06
2023-04-09T15:50:33.256Z,100706.38
2023-04-09T15:53:00.498Z,100711.44
2023-04-09T15:55:27.576Z,100711.34
2023-04-09T15:57:55.197Z,100710.38
2023-04-09T16:00:24.244Z,100709.38
2023-04-09T16:02:53.044Z,100702.34
2023-04-09T16:05:20.041Z,100697.03
2023-04-09T16:07:47.013Z,100708.22
2023-04-09T16:10:14.738Z,100707.28
2023-04-09T16:12:41.903Z,100708.03
2023-04-09T16:15:09.533Z,100718.28
2023-04-09T16:17:40.992Z,100711.34
2023-04-09T16:20:08.628Z,100719.91
2023-04-09T16:22:35.863Z,100715.47
2023-04-09T16:25:02.988Z,100726.50
2023-04-09T16:27:29.989Z,100720.25
2023-04-09T16:29:57.004Z,100719.28
2023-04-09T16:32:24.067Z,100726.13
2023-04-09T16:34:51.908Z,100718.25
2023-04-09T16:37:18.816Z,100723.25
2023-04-09T16:39:45.902Z,100724.88
2023-04-09T16:42:13.067Z,100720.34
2023-04-09T16:44:40.298Z,100724.50
2023-04-09T16:47:08.324Z,100717.50
2023-04-09T16:49:35.441Z,100718.22
2023-04-09T16:52:02.460Z,100715.63
2023-04-09T16:54:29.369Z,100715.56
2023-04-09T16:56:58.601Z,100723.31
2023-04-09T16:59:25.637Z,100725.84
2023-04-09T17:01:52.859Z,100729.19
2023-04-09T17:04:19.998Z,100722.34
2023-04-09T17:06:47.276Z,100729.28
2023-04-09T17:09:14.242Z,100729.13
2023-04-09T17:11:42.368Z,100737.78
2023-04-09T17:14:09.256Z,100731.78
2023-04-09T17:16:38.204Z,100731.78
2023-04-09T17:19:05.222Z,100737.66
2023-04-09T17:21:32.270Z,100737.47
2023-04-09T17:23:59.840Z,100735.56
2023-04-09T17:26:26.917Z,100738.03
2023-04-09T17:28:54.135Z,100746.56
2023-04-09T17:31:24.237Z,100743.72
2023-04-09T17:33:51.911Z,100746.31
2023-04-09T17:36:20.022Z,100741.97
2023-04-09T17:38:47.835Z,100744.50
2023-04-09T17:41:14.735Z,100736.66
2023-04-09T17:43:41.863Z,100746.78
2023-04-09T17:46:09.155Z,100743.91
2023-04-09T17:48:36.759Z,100742.81
2023-04-09T17:51:04.326Z,100736.53
2023-04-09T17:53:31.367Z,100735.50
2023-04-09T17:55:58.442Z,100735.41
2023-04-09T17:58:26.098Z,100743.00
2023-04-09T18:00:53.940Z,100737.66
2023-04-09T18:03:21.298Z,100735.84
2023-04-09T18:05:48.737Z,100732.25
2023-04-09T18:08:15.843Z,100736.44
2023-04-09T18:10:42.790Z,100738.09
2023-04-09T18:13:09.791Z,100739.78
2023-04-09T18:15:37.253Z,100742.44
2023-04-09T18:18:04.331Z,100742.44
2023-04-09T18:20:31.448Z,100739.84
2023-04-09T18:22:58.376Z,100733.88
2023-04-09T18:25:25.591Z,100736.59
2023-04-09T18:27:52.615Z,100735.03
2023-04-09T18:30:19.645Z,100735.19
2023-04-09T18:32:48.340Z,100720.69
2023-04-09T18:35:15.702Z,100721.50
2023-04-09T18:37:42.639Z,100726.75
2023-04-09T18:40:12.330Z,100721.66
2023-04-09T18:42:39.363Z,100718.25
2023-04-09T18:45:06.564Z,100720.84
2023-04-09T18:47:33.602Z,100728.59
2023-04-09T18:50:00.684Z,100720.84
2023-04-09T18:52:27.624Z,100724.19
2023-04-09T18:54:54.825Z,100722.34
2023-04-09T18:57:22.259Z,100719.63
2023-04-09T18:59:49.175Z,100728.13
2023-04-09T19:02:16.205Z,100726.25
2023-04-09T19:04:43.595Z,100721.84
2023-04-09T19:07:10.717Z,100720.88
2023-04-09T19:09:38.627Z,100719.06
2023-04-09T19:12:05.860Z,100717.31
2023-04-09T19:14:32.801Z,100716.44
2023-04-09T19:16:59.914Z,100718.94
2023-04-09T19:19:29.072Z,100718.84
2023-04-09T19:21:56.182Z,100712.72
2023-04-09T19:24:25.959Z,100707.56
2023-04-09T19:26:53.410Z,100711.03
2023-04-09T19:29:20.862Z,100717.03
2023-04-09T19:31:47.949Z,100718.78
2023-04-09T19:34:15.754Z,100714.34
2023-04-09T19:36:42.925Z,100714.28
2023-04-09T19:39:11.095Z,100714.09
2023-04-09T19:41:38.191Z,100714.13
2023-04-09T19:44:07.384Z,100712.38
2023-04-09T19:46:34.626Z,100709.78
2023-04-09T19:49:01.734Z,100710.56
2023-04-09T19:51:28.903Z,100712.97
2023-04-09T19:53:56.466Z,100706.06
2023-04-09T19:56:23.438Z,100709.50
2023-04-09T19:58:50.410Z,100706.91
2023-04-09T20:01:17.445Z,100709.41
2023-04-09T20:03:44.698Z,100710.81
2023-04-09T20:06:11.922Z,100710.59
2023-04-09T20:08:39.162Z,100710.34
2023-04-09T20:11:06.906Z,100712.75
2023-04-09T20:13:34.225Z,100716.25
2023-04-09T20:16:01.653Z,100719.09
2023-04-09T20:18:28.876Z,100716.53
2023-04-09T20:20:56.012Z,100721.47
2023-04-09T20:23:22.945Z,100718.63
2023-04-09T20:25:56.036Z,100711.66
2023-04-09T20:28:23.214Z,100718.47
2023-04-09T20:30:50.657Z,100717.50
2023-04-09T20:33:18.088Z,100714.84
2023-04-09T20:35:45.140Z,100708.78
2023-04-09T20:38:12.032Z,100717.28
2023-04-09T20:40:39.059Z,100718.13
2023-04-09T20:43:06.543Z,100719.81
2023-04-09T20:45:33.533Z,100718.84
2023-04-09T20:48:01.262Z,100716.22
2023-04-09T20:50:28.991Z,100720.41
2023-04-09T20:52:56.151Z,100720.34
2023-04-09T20:55:23.747Z,100716.13
2023-04-09T20:57:50.683Z,100710.22
2023-04-09T21:00:18.755Z,100719.81
2023-04-09T21:02:45.957Z,100717.31
2023-04-09T21:05:22.489Z,100711.97
2023-04-09T21:07:51.902Z,100716.72
2023-04-09T21:10:18.923Z,100709.44
2023-04-09T21:12:46.053Z,100718.72
2023-04-09T21:15:13.003Z,100722.03
2023-04-09T21:17:40.124Z,100725.53
2023-04-09T21:20:08.737Z,100720.28
2023-04-09T21:22:36.075Z,100721.94
2023-04-09T21:25:03.498Z,100728.63
2023-04-09T21:27:31.266Z,100731.72
2023-04-09T21:29:58.208Z,100733.19
2023-04-09T21:32:25.422Z,100733.22
2023-04-09T21:34:53.347Z,100732.22
2023-04-09T21:37:20.272Z,100737.31
2023-04-09T21:39:48.862Z,100735.34
2023-04-09T21:42:16.029Z,100740.56
2023-04-09T21:44:43.046Z,100731.09
2023-04-09T21:47:12.177Z,100734.16
2023-04-09T21:49:40.203Z,100729.75
2023-04-09T21:52:14.357Z,100734.59
2023-04-09T21:54:42.453Z,100728.97
2023-04-09T21:57:09.887Z,100734.72
2023-04-09T21:59:36.950Z,100724.09
2023-04-09T22:02:04.776Z,100730.56
2023-04-09T22:04:31.844Z,100727.16
2023-04-09T22:06:58.857Z,100721.28
2023-04-09T22:09:26.007Z,100727.50
2023-04-09T22:11:53.629Z,100731.13
2023-04-09T22:14:21.918Z,100727.16
2023-04-09T22:16:48.836Z,100728.69
2023-04-09T22:19:16.666Z,100724.59
2023-04-09T22:21:43.568Z,100727.22
2023-04-09T22:24:10.900Z,100725.59
2023-04-09T22:26:39.140Z,100717.09
2023-04-09T22:29:07.142Z,100728.34
2023-04-09T22:31:34.057Z,100720.81
2023-04-09T22:34:09.879Z,100722.94
2023-04-09T22:36:44.429Z,100719.16
2023-04-09T22:39:11.285Z,100724.38
2023-04-09T22:41:38.640Z,100716.69
2023-04-09T22:44:06.725Z,100718.41
2023-04-09T22:46:34.831Z,100720.34
2023-04-09T22:49:05.075Z,100718.84
2023-04-09T22:51:34.737Z,100713.34
2023-04-09T22:54:02.339Z,100707.06
2023-04-09T22:56:31.770Z,100709.75
2023-04-09T22:58:58.983Z,100712.06
2023-04-09T23:01:26.543Z,100703.25
2023-04-09T23:03:53.544Z,100708.78
2023-04-09T23:06:21.861Z,100703.72
2023-04-09T23:08:48.760Z,100705.06
2023-04-09T23:11:15.800Z,100708.44
2023-04-09T23:13:42.847Z,100698.44
2023-04-09T23:16:10.230Z,100704.72
2023-04-09T23:18:37.328Z,100714.59
2023-04-09T23:21:10.715Z,100718.38
2023-04-09T23:23:38.143Z,100707.84
2023-04-09T23:26:05.467Z,100702.66
2023-04-09T23:28:32.310Z,100705.50
2023-04-09T23:30:59.429Z,100700.72
2023-04-09T23:33:26.758Z,100699.41
2023-04-09T23:35:54.102Z,100699.41
2023-04-09T23:38:21.161Z,100707.09
2023-04-09T23:40:48.932Z,100698.69
2023-04-09T23:43:16.091Z,100697.16
2023-04-09T23:45:43.857Z,100698.03
2023-04-09T23:48:11.846Z,100704.94
2023-04-09T23:50:41.749Z,100705.94
2023-04-09T23:53:08.878Z,100703.19
2023-04-09T23:55:40.827Z,100708.56
2023-04-09T23:58:07.834Z,100708.25
